• Join FlightAware (Why Join?)
  • Login
  • US Flag 
04:42AM EDT


 

Airport Tracker/Info


-or-


 

Live Flight TrackerFlight Track Log ✈ N3390S ✈ 25-May-2013 ✈ KTEW - 13C

Flight Track Log - Related Links

Times and Time Zones

All times are in EDT time to prevent confusion due to time zone crossing. See the N3390S flight status page for this flight to view local times or setup timezone preferences in your user account.

Time Position Orientation Groundspeed Altitude Reporting Facility
EDT Latitude Longitude Course Direction KTS MPH feet Rate Location/Type
03:28PM 42.7427 -84.5887 326° Northwest  Level Estimated
03:29PM 42.7721 -84.6164 325° Northwest  Level Estimated
03:30PM 42.8016 -84.6441 325° Northwest  Level Estimated
03:31PM 42.8310 -84.6718 325° Northwest  Level Estimated
03:32PM 42.8605 -84.6996 325° Northwest  Level Estimated
03:33PM 42.8899 -84.7273 325° Northwest  Level Estimated
03:34PM 42.9193 -84.7552 325° Northwest  Level Estimated
03:35PM 42.9487 -84.7830 325° Northwest  Level Estimated
03:35PM 42.9789 -84.8014 325° Northwest 155 178 4,600  Level Chicago Center
03:36PM 42.9781 -84.8109 325° Northwest  Level Estimated
03:36PM 43.0133 -84.8358 324° Northwest 155 178 4,600  Level Chicago Center
03:37PM 43.0075 -84.8388 325° Northwest  Level Estimated
03:37PM 43.0486 -84.8700 325° Northwest 155 178 4,600  Level Chicago Center
03:38PM 43.0369 -84.8667 325° Northwest  Level Estimated
03:38PM 43.0825 -84.9039 324° Northwest 154 177 4,600  Level Chicago Center
03:39PM 43.0663 -84.8946 325° Northwest  Level Estimated
03:39PM 43.1172 -84.9378 325° Northwest 153 176 4,600  Level Chicago Center
03:40PM 43.0957 -84.9226 325° Northwest  Level Estimated
03:40PM 43.1603 -84.9794 325° Northwest 156 180 4,600  Level Chicago Center
03:41PM 43.1953 -85.0131 325° Northwest 156 180 4,600  Level Chicago Center
03:42PM 43.2297 -85.0458 325° Northwest 154 177 4,600 -120 Level Chicago Center
03:43PM 43.2636 -85.0800 324° Northwest 153 176 4,400 -360 Descending Chicago Center
03:44PM 43.3014 -85.1161 325° Northwest 157 181 3,900 -540 Descending Chicago Center
03:45PM 43.3406 -85.1542 325° Northwest 164 189 3,300 -600 Descending Chicago Center
03:46PM 43.3781 -85.1917 324° Northwest 167 192 2,700 -540 Descending Chicago Center
03:47PM 43.4072 -85.2403 310° West 154 177 2,200 -420 Descending Chicago Center
03:48PM 43.4294 -85.2789 308° West 142 163 1,900 -300 Descending Chicago Center
03:49PM 43.4417 -85.2467 62° Northeast 123 142 1,700 -180 Descending Chicago Center
03:50PM 43.4439 -85.2158 84° East 112 129 1,600 -120 Descending Chicago Center
03:52PM 43.4500 -85.2500 340° North  Level FlightAware Approximate
03:59PM 43.4523 -85.2646 340° North  Level Estimated
04:00PM 43.4523 -85.2646 340° North  Level Estimated
04:01PM 43.4523 -85.2646 340° North  Level Estimated